Flight Track Log - Related Links

Times and Time Zones

All times are in EDT time to prevent confusion due to time zone crossing. See the UAL5419 flight status page for this flight to view local times or setup timezone preferences in your user account.


Time Position Orientation Groundspeed Altitude Reporting Facility
EDT Latitude Longitude Course Direction KTS MPH feet Rate Location/Type
Mon 02:58:18 PM 42.9333 -87.9000 160° South 144 166 1,400  Level KMKE
Mon 02:59:30 PM 42.8667 -87.8667 160° South 216 249 4,100 2,455 Climbing KMKE
Mon 03:00:30 PM 42.8000 -87.8333 160° South 277 319 6,800 1,723 Climbing KMKE
Mon 03:01:11 PM 42.7728 -87.8039 142° Southeast 268 308 7,000 117 Climbing Chicago Center
Mon 03:02:13 PM 42.7100 -87.7431 145° Southeast 274 315 7,000  Level Chicago Center
Mon 03:03:15 PM 42.6381 -87.6747 145° Southeast 272 313 7,000  Level Chicago Center
Mon 03:04:17 PM 42.5728 -87.6333 155° Southeast 268 308 7,000  Level Chicago Center
Mon 03:05:19 PM 42.4981 -87.6217 173° South 269 310 7,000  Level Chicago Center
Mon 03:06:21 PM 42.4211 -87.6100 174° South 275 316 7,000 -435 Level Chicago Center
Mon 03:07:23 PM 42.3483 -87.5825 164° South 273 314 6,100 -484 Descending Chicago Center
Mon 03:08:25 PM 42.2806 -87.5917 186° South 252 290 6,000 -48 Descending Chicago Center
Mon 03:09:27 PM 42.2258 -87.6417 214° Southwest 196 226 6,000  Level Chicago Center
Mon 03:10:28 PM 42.1892 -87.6844 221° Southwest 177 204 6,000 -439 Level Chicago Center
Mon 03:11:30 PM 42.1522 -87.7253 219° Southwest 174 200 5,100 -919 Descending Chicago Center
Mon 03:12:32 PM 42.1158 -87.7653 219° Southwest 171 197 4,100 -1,016 Descending Chicago Center
Mon 03:13:34 PM 42.0769 -87.8097 220° Southwest 177 204 3,000 -1,161 Descending Chicago Center
Mon 03:14:36 PM 42.0367 -87.8558 220° Southwest 168 193 1,700 -823 Descending Chicago Center
Mon 03:15:38 PM 42.0142 -87.8778 216° Southwest 144 166 1,300 -387 Descending Chicago Center
Mon 03:17:00 PM 41.9817 -87.9067 217° Southwest  Level Estimated
Mon 03:24:00 PM 41.9817 -87.9067 217° Southwest  Level Estimated

Login

Don't have an account? Register now (free) for customized features, flight alerts, and more!